Time;durP1;ratioP1;P1;durP2;ratioP2;P2;SDS_P1;SDS_P2;PMS_P1;PMS_P2;Temp;Humidity;BMP_temperature;BMP_pressure;BME280_temperature;BME280_humidity;BME280_pressure;Samples;Min_cycle;Max_cycle;Signal;HPM_P1;HPM_P2
2023/04/07 00:00:53;;;;;;;9.32;7.35;;;;;;;1.82;46.11;94480.47;5088070;28;20089;-77
2023/04/07 00:03:18;;;;;;;10.48;7.85;;;;;;;2.19;45.82;94513.41;5087030;28;20032;-77
2023/04/07 00:05:44;;;;;;;11.93;8.18;;;;;;;2.06;45.42;94511.59;5068051;28;20463;-77
2023/04/07 00:08:09;;;;;;;10.52;7.53;;;;;;;2.07;45.94;94516.66;5066613;28;20024;-76
2023/04/07 00:10:35;;;;;;;8.20;6.55;;;;;;;2.02;47.28;94518.63;5070962;28;20547;-76
2023/04/07 00:13:00;;;;;;;10.65;6.57;;;;;;;1.95;47.33;94499.38;5066577;28;20025;-76
2023/04/07 00:15:26;;;;;;;9.35;6.55;;;;;;;2.01;47.36;94527.25;5087519;28;20032;-76
2023/04/07 00:17:51;;;;;;;9.98;6.60;;;;;;;1.80;49.06;94490.78;5083644;28;20093;-76
2023/04/07 00:20:17;;;;;;;8.00;6.15;;;;;;;1.92;49.28;94520.03;5087096;28;20378;-76
2023/04/07 00:22:42;;;;;;;13.63;6.95;;;;;;;1.62;49.82;94472.13;5086796;28;20040;-77
2023/04/07 00:25:08;;;;;;;11.70;7.10;;;;;;;1.89;48.94;94515.06;5069155;28;20032;-76
2023/04/07 00:27:34;;;;;;;12.13;7.82;;;;;;;1.72;49.83;94504.00;5086248;28;20322;-75
2023/04/07 00:29:59;;;;;;;10.70;7.07;;;;;;;1.65;50.12;94483.94;5086730;28;20032;-76
2023/04/07 00:32:25;;;;;;;9.60;6.85;;;;;;;1.69;49.96;94496.47;5085983;28;20042;-76
2023/04/07 00:34:50;;;;;;;9.15;6.90;;;;;;;1.65;49.79;94518.03;5068915;28;20028;-75
2023/04/07 00:37:16;;;;;;;9.00;6.72;;;;;;;1.72;48.87;94514.25;5084601;28;20040;-76
2023/04/07 00:39:41;;;;;;;10.35;7.05;;;;;;;1.52;50.10;94501.66;5086140;28;20489;-76
2023/04/07 00:42:07;;;;;;;9.02;6.28;;;;;;;1.56;49.76;94493.75;5085681;28;20032;-76
2023/04/07 00:44:33;;;;;;;9.73;6.78;;;;;;;1.42;49.41;94496.22;5085653;28;20414;-76
2023/04/07 00:46:58;;;;;;;7.78;6.20;;;;;;;1.58;50.27;94505.63;5051125;28;20441;-76
2023/04/07 00:49:27;;;;;;;11.30;7.07;;;;;;;1.29;49.33;94485.78;5068051;28;20032;-76
2023/04/07 00:51:53;;;;;;;8.88;6.32;;;;;;;1.42;49.76;94497.94;5052192;28;20505;-76
2023/04/07 00:54:18;;;;;;;8.48;6.20;;;;;;;1.41;51.28;94506.53;5085268;28;20028;-76
2023/04/07 00:56:43;;;;;;;8.30;6.35;;;;;;;1.34;51.48;94500.91;5084836;28;20077;-74
2023/04/07 00:59:09;;;;;;;9.75;5.82;;;;;;;1.40;50.32;94515.13;5084630;28;20028;-77
2023/04/07 01:01:39;;;;;;;10.23;7.10;;;;;;;1.40;50.85;94507.44;5052137;28;20020;-77
2023/04/07 01:04:12;;;;;;;8.82;6.43;;;;;;;1.34;51.30;94501.72;5069176;28;20036;-77
2023/04/07 01:06:39;;;;;;;10.32;6.38;;;;;;;1.44;49.50;94508.91;5083024;28;20049;-77
2023/04/07 01:09:12;;;;;;;8.70;6.07;;;;;;;1.26;51.36;94498.72;5086899;28;20447;-77
2023/04/07 01:12:02;;;;;;;8.00;6.18;;;;;;;1.34;52.12;94503.47;5052899;28;20063;-77
2023/04/07 01:14:29;;;;;;;8.73;6.32;;;;;;;1.29;51.05;94502.88;5084658;28;20494;-76
2023/04/07 01:16:55;;;;;;;8.25;5.85;;;;;;;1.30;50.65;94500.22;5066574;28;20040;-78
2023/04/07 01:19:33;;;;;;;9.00;5.70;;;;;;;1.27;51.05;94502.94;5068017;28;20044;-76
2023/04/07 01:21:59;;;;;;;8.98;6.63;;;;;;;1.10;51.26;94469.72;5085152;28;20614;-76
2023/04/07 01:24:45;;;;;;;8.57;6.25;;;;;;;1.35;49.63;94502.53;5085264;28;20083;-76
2023/04/07 01:27:32;;;;;;;8.90;6.30;;;;;;;1.20;50.60;94483.69;5066794;28;20030;-76
2023/04/07 01:29:57;;;;;;;9.70;6.05;;;;;;;1.29;51.04;94493.47;5084836;28;20036;-76
2023/04/07 01:32:23;;;;;;;9.30;6.25;;;;;;;1.26;51.99;94493.63;5085357;28;20035;-76
2023/04/07 01:34:49;;;;;;;7.80;5.82;;;;;;;1.20;50.85;94472.63;5071288;28;20042;-75
2023/04/07 01:37:15;;;;;;;7.78;5.55;;;;;;;1.29;49.61;94482.41;5070791;28;20031;-76
2023/04/07 01:39:40;;;;;;;9.52;6.68;;;;;;;1.28;48.87;94480.72;5075140;28;20024;-75
2023/04/07 01:42:06;;;;;;;9.07;5.88;;;;;;;1.26;49.55;94474.88;5074192;28;20421;-75
2023/04/07 01:44:31;;;;;;;7.57;5.85;;;;;;;1.37;50.24;94492.25;5073629;28;20410;-75
2023/04/07 01:46:57;;;;;;;7.20;5.53;;;;;;;1.30;50.92;94473.81;5091040;28;20032;-75
2023/04/07 01:49:22;;;;;;;8.38;5.60;;;;;;;1.38;50.02;94468.28;5073776;28;20058;-75
2023/04/07 01:51:49;;;;;;;7.57;5.72;;;;;;;1.44;48.44;94470.53;5073585;28;20555;-75
2023/04/07 01:54:15;;;;;;;7.43;5.85;;;;;;;1.56;48.15;94482.66;5073865;28;20035;-76
2023/04/07 01:56:40;;;;;;;9.10;5.78;;;;;;;1.71;46.47;94483.59;5075581;28;20024;-76
2023/04/07 01:59:06;;;;;;;9.73;6.38;;;;;;;1.72;45.55;94478.38;5092629;28;20036;-76
2023/04/07 02:01:31;;;;;;;8.18;5.90;;;;;;;1.73;46.45;94456.19;5075639;28;20036;-76
2023/04/07 02:04:18;;;;;;;7.25;5.53;;;;;;;1.83;46.66;94479.56;5075812;28;20036;-77
2023/04/07 02:06:48;;;;;;;8.65;5.68;;;;;;;1.64;45.08;94448.97;5092462;28;20052;-77
2023/04/07 02:09:14;;;;;;;7.90;6.15;;;;;;;1.93;45.75;94470.47;5092382;28;20032;-77
2023/04/07 02:11:40;;;;;;;8.23;6.20;;;;;;;1.91;46.39;94474.84;5059373;28;20024;-77
2023/04/07 02:14:06;;;;;;;7.20;5.68;;;;;;;1.78;46.96;94437.09;5075426;28;20077;-77
2023/04/07 02:16:31;;;;;;;10.45;6.10;;;;;;;1.87;48.15;94476.75;5075575;28;20085;-77
2023/04/07 02:18:56;;;;;;;7.28;5.45;;;;;;;1.79;50.74;94474.59;5092194;28;20418;-77
2023/04/07 02:21:22;;;;;;;7.28;5.20;;;;;;;1.63;49.08;94453.28;5075474;28;20447;-77
2023/04/07 02:23:48;;;;;;;6.80;5.13;;;;;;;1.71;49.56;94465.69;5091451;28;20493;-77
2023/04/07 02:26:13;;;;;;;9.30;6.10;;;;;;;1.71;46.97;94453.69;5090811;28;20443;-79
2023/04/07 02:28:39;;;;;;;8.13;6.47;;;;;;;1.69;47.84;94447.81;5092015;28;20401;-77
2023/04/07 02:31:04;;;;;;;8.30;5.65;;;;;;;1.82;48.58;94476.16;5092811;28;20046;-77
2023/04/07 02:33:30;;;;;;;8.48;5.82;;;;;;;1.81;50.30;94473.69;5091975;28;20032;-77
2023/04/07 02:35:55;;;;;;;8.35;5.65;;;;;;;1.86;48.69;94469.13;5091566;28;20421;-77
2023/04/07 02:38:21;;;;;;;8.30;5.60;;;;;;;1.81;47.63;94446.31;5091726;28;20043;-77
2023/04/07 02:40:46;;;;;;;6.85;5.28;;;;;;;1.89;48.16;94464.66;5074598;28;20093;-77
2023/04/07 02:43:12;;;;;;;7.35;5.45;;;;;;;1.74;47.55;94450.97;5092025;28;20032;-77
2023/04/07 02:45:38;;;;;;;17.63;11.63;;;;;;;1.88;47.77;94462.19;5073683;28;20034;-77
2023/04/07 02:48:03;;;;;;;14.93;9.48;;;;;;;1.82;48.63;94462.53;5091252;28;20020;-77
2023/04/07 02:50:29;;;;;;;11.52;7.38;;;;;;;1.92;49.59;94473.91;5091488;28;20040;-77
2023/04/07 02:52:54;;;;;;;11.20;6.88;;;;;;;1.90;50.24;94480.88;5093321;28;20019;-76
2023/04/07 02:55:20;;;;;;;7.32;5.40;;;;;;;1.86;50.44;94469.97;5094998;28;20512;-77
2023/04/07 02:57:45;;;;;;;8.77;6.47;;;;;;;1.82;46.63;94449.72;5074467;28;20024;-77
2023/04/07 03:00:11;;;;;;;7.35;6.22;;;;;;;2.02;45.99;94482.75;5057720;28;20059;-77
2023/04/07 03:02:36;;;;;;;9.50;6.50;;;;;;;2.03;47.02;94473.34;5074242;28;20035;-77
2023/04/07 03:05:03;;;;;;;8.10;6.13;;;;;;;2.16;45.14;94480.28;5074297;28;20035;-77
2023/04/07 03:07:30;;;;;;;9.02;6.60;;;;;;;2.21;46.00;94480.84;5091261;28;20573;-78
2023/04/07 03:09:56;;;;;;;8.65;6.07;;;;;;;2.28;45.17;94490.75;5092652;28;20529;-76
2023/04/07 03:12:21;;;;;;;11.18;7.40;;;;;;;2.18;44.67;94475.91;5090831;28;20115;-77
2023/04/07 03:14:47;;;;;;;15.48;10.55;;;;;;;2.09;48.26;94486.66;5074334;28;20472;-77
2023/04/07 03:17:12;;;;;;;16.83;12.60;;;;;;;2.13;49.90;94493.25;5074027;28;20654;-77
2023/04/07 03:19:38;;;;;;;19.05;10.95;;;;;;;1.99;51.94;94490.63;5074209;28;20036;-77
2023/04/07 03:22:03;;;;;;;15.88;10.85;;;;;;;1.35;54.00;94446.25;5091804;28;20538;-77
2023/04/07 03:24:29;;;;;;;13.15;8.90;;;;;;;1.72;52.18;94487.81;5073821;28;20031;-76
2023/04/07 03:26:55;;;;;;;23.38;15.18;;;;;;;1.60;52.54;94468.81;5089469;28;20054;-78
2023/04/07 03:29:20;;;;;;;16.35;11.88;;;;;;;1.72;52.26;94490.38;5090513;28;20036;-78
2023/04/07 03:31:46;;;;;;;16.02;12.45;;;;;;;1.82;53.73;94493.28;5096800;28;20032;-77
2023/04/07 03:34:11;;;;;;;15.52;11.05;;;;;;;1.70;53.13;94477.66;5091874;28;20031;-77
2023/04/07 03:36:36;;;;;;;14.80;11.73;;;;;;;1.71;53.66;94478.47;5107470;28;20035;-77
2023/04/07 03:39:02;;;;;;;15.90;11.00;;;;;;;1.76;53.51;94489.31;5092092;28;20482;-76
2023/04/07 03:41:28;;;;;;;8.95;6.80;;;;;;;1.47;49.69;94447.31;5090485;28;20375;-76
2023/04/07 03:43:53;;;;;;;9.00;6.30;;;;;;;1.70;48.65;94464.84;5090505;28;20479;-76
2023/04/07 03:46:20;;;;;;;7.85;6.38;;;;;;;1.70;50.03;94464.84;5078861;28;20024;-76
2023/04/07 03:48:46;;;;;;;8.88;6.25;;;;;;;1.76;48.69;94479.88;5094022;28;20062;-76
2023/04/07 03:51:11;;;;;;;7.68;5.80;;;;;;;1.73;47.13;94492.88;5110323;28;20027;-76
2023/04/07 03:53:37;;;;;;;13.13;5.70;;;;;;;1.60;47.31;94473.09;5093861;28;20112;-76
2023/04/07 03:56:03;;;;;;;7.10;6.18;;;;;;;1.52;47.76;94502.50;5110343;28;20023;-76
2023/04/07 03:58:28;;;;;;;8.90;5.90;;;;;;;1.33;48.40;94500.06;5110338;28;20386;-76
2023/04/07 04:00:54;;;;;;;9.35;6.57;;;;;;;0.87;48.48;94440.19;5072193;28;20028;-75
2023/04/07 04:03:19;;;;;;;9.63;6.60;;;;;;;1.04;49.09;94482.81;5087365;28;20530;-75
2023/04/07 04:05:45;;;;;;;9.85;6.53;;;;;;;1.16;49.61;94500.09;5069144;28;20434;-76
2023/04/07 04:08:10;;;;;;;8.73;5.85;;;;;;;0.99;49.86;94488.16;5070091;28;20058;-76
2023/04/07 04:10:36;;;;;;;8.30;6.10;;;;;;;0.77;49.72;94467.97;5068279;28;20127;-76
2023/04/07 04:13:05;;;;;;;8.48;5.50;;;;;;;1.14;49.55;94504.47;5067955;28;20486;-76
2023/04/07 04:15:31;;;;;;;6.82;5.28;;;;;;;1.05;49.17;94510.06;5066790;28;20025;-76
2023/04/07 04:17:56;;;;;;;6.28;4.78;;;;;;;0.93;49.12;94496.16;5067356;28;20109;-76
2023/04/07 04:20:22;;;;;;;6.85;5.10;;;;;;;1.03;48.84;94506.75;5065999;28;20101;-75
2023/04/07 04:22:47;;;;;;;6.28;4.68;;;;;;;1.06;49.10;94506.59;5068624;28;20046;-75
2023/04/07 04:25:15;;;;;;;6.75;5.10;;;;;;;0.87;49.40;94492.19;5086808;28;20020;-76
2023/04/07 04:27:41;;;;;;;9.38;5.72;;;;;;;1.11;49.33;94505.47;5069325;28;20040;-76
2023/04/07 04:30:07;;;;;;;7.57;5.45;;;;;;;1.20;48.92;94506.72;5084468;28;20043;-74
2023/04/07 04:32:33;;;;;;;12.60;7.70;;;;;;;1.20;49.08;94511.00;5068616;28;20028;-75
2023/04/07 04:34:58;;;;;;;8.07;5.55;;;;;;;1.19;48.38;94494.81;5085823;28;20020;-77
2023/04/07 04:37:24;;;;;;;7.07;5.18;;;;;;;1.37;49.01;94500.75;5086224;28;20039;-75
2023/04/07 04:39:50;;;;;;;8.55;5.20;;;;;;;1.54;48.12;94513.47;5084811;28;20040;-77
2023/04/07 04:42:15;;;;;;;7.70;5.30;;;;;;;1.36;46.71;94496.50;5085134;28;20036;-76
2023/04/07 04:44:41;;;;;;;8.10;5.65;;;;;;;1.59;47.17;94523.50;5052387;28;20031;-76
2023/04/07 04:47:06;;;;;;;10.38;7.68;;;;;;;1.46;48.92;94523.28;5052401;28;20032;-76
2023/04/07 04:49:31;;;;;;;8.63;6.90;;;;;;;1.50;49.91;94526.50;5083421;28;20571;-75
2023/04/07 04:51:57;;;;;;;9.15;6.47;;;;;;;1.59;49.94;94531.19;5084817;28;20480;-76
2023/04/07 04:54:22;;;;;;;9.35;6.43;;;;;;;1.55;49.13;94512.56;5085935;28;20844;-76
2023/04/07 04:56:48;;;;;;;8.32;6.25;;;;;;;1.73;48.79;94527.91;5071136;28;20043;-76
2023/04/07 04:59:13;;;;;;;16.30;9.98;;;;;;;1.78;50.21;94538.69;5087193;28;20032;-76
2023/04/07 05:01:39;;;;;;;20.83;11.88;;;;;;;1.79;51.35;94541.19;5089824;28;20032;-76
2023/04/07 05:04:05;;;;;;;20.05;11.38;;;;;;;1.87;52.02;94534.84;5088689;28;20073;-76
2023/04/07 05:06:30;;;;;;;15.20;9.77;;;;;;;1.96;51.76;94534.34;5086504;28;20430;-76
2023/04/07 05:08:56;;;;;;;17.70;12.13;;;;;;;2.03;52.03;94522.84;5088074;28;20105;-77
2023/04/07 05:11:21;;;;;;;20.70;13.32;;;;;;;2.19;52.30;94539.03;5092981;28;20043;-77
2023/04/07 05:13:46;;;;;;;25.63;18.33;;;;;;;2.20;51.91;94515.09;5094863;28;20031;-77
2023/04/07 05:16:12;;;;;;;22.35;14.90;;;;;;;2.62;51.22;94548.69;5074743;28;20032;-77
2023/04/07 05:18:38;;;;;;;28.45;18.15;;;;;;;3.28;50.42;94545.72;5090899;28;20033;-77
2023/04/07 05:21:03;;;;;;;20.08;14.50;;;;;;;3.72;49.19;94546.59;5090354;28;20461;-77
2023/04/07 05:23:28;;;;;;;18.13;11.90;;;;;;;3.49;48.79;94551.34;5090182;28;20028;-77
2023/04/07 05:25:54;;;;;;;12.07;8.98;;;;;;;3.28;47.91;94547.47;5091209;28;20024;-77
2023/04/07 05:28:20;;;;;;;11.13;8.80;;;;;;;3.06;48.96;94525.63;5074450;28;20075;-77
2023/04/07 05:30:45;;;;;;;11.63;9.05;;;;;;;3.08;48.89;94549.47;5091826;28;20089;-77
2023/04/07 05:33:10;;;;;;;14.20;10.05;;;;;;;3.12;48.67;94545.81;5093211;28;20502;-77
2023/04/07 05:35:36;;;;;;;15.95;10.00;;;;;;;3.06;49.54;94551.28;5094787;28;20044;-77
2023/04/07 05:38:01;;;;;;;13.82;10.00;;;;;;;2.99;49.46;94541.47;5093208;28;20021;-77
2023/04/07 05:40:29;;;;;;;17.80;10.70;;;;;;;3.03;50.40;94556.59;5093150;28;20051;-77
2023/04/07 05:42:54;;;;;;;17.38;10.70;;;;;;;3.06;50.33;94561.53;5076397;28;20060;-77
2023/04/07 05:45:20;;;;;;;14.98;11.10;;;;;;;3.11;50.49;94567.25;5093203;28;20062;-77
2023/04/07 05:47:48;;;;;;;16.70;11.68;;;;;;;3.16;50.54;94555.91;5092919;28;20024;-77
2023/04/07 05:50:14;;;;;;;21.05;13.07;;;;;;;3.27;50.79;94558.66;5076603;28;20054;-77
2023/04/07 05:52:40;;;;;;;17.67;11.77;;;;;;;2.91;50.49;94555.56;5094061;28;20485;-77
2023/04/07 05:55:06;;;;;;;16.00;11.43;;;;;;;3.11;50.29;94558.72;5092867;28;20035;-77
2023/04/07 05:57:32;;;;;;;12.93;10.60;;;;;;;3.13;50.34;94557.72;5093958;28;20555;-77
2023/04/07 05:59:57;;;;;;;15.50;9.88;;;;;;;3.03;50.08;94546.31;5092749;28;20036;-77
2023/04/07 06:02:23;;;;;;;14.27;9.45;;;;;;;2.66;50.95;94534.78;5092600;28;20497;-77
2023/04/07 06:04:48;;;;;;;16.00;10.02;;;;;;;2.83;50.94;94534.63;5092706;28;20409;-77
2023/04/07 06:07:14;;;;;;;13.20;10.27;;;;;;;3.07;49.99;94562.41;5092622;28;20052;-77
2023/04/07 06:09:41;;;;;;;13.00;8.73;;;;;;;3.22;48.77;94550.41;5075542;28;20043;-77
2023/04/07 06:12:07;;;;;;;12.07;8.80;;;;;;;2.99;49.23;94552.56;5092513;28;20024;-77
2023/04/07 06:14:32;;;;;;;13.05;9.27;;;;;;;3.44;49.80;94557.69;5075680;28;20039;-77
2023/04/07 06:16:57;;;;;;;16.23;10.00;;;;;;;3.69;48.98;94545.03;5075327;28;20028;-77
2023/04/07 06:19:23;;;;;;;14.52;9.10;;;;;;;4.14;47.40;94544.88;5093374;28;20043;-77
2023/04/07 06:21:48;;;;;;;12.05;8.20;;;;;;;4.46;45.84;94551.44;5092536;28;20028;-77
2023/04/07 06:24:14;;;;;;;11.25;8.80;;;;;;;4.52;46.42;94539.09;5091983;28;20055;-77
2023/04/07 06:26:40;;;;;;;10.93;8.45;;;;;;;4.76;46.07;94503.25;5108989;28;20028;-77
2023/04/07 06:29:06;;;;;;;11.77;8.55;;;;;;;5.28;44.96;94544.41;5091816;28;20035;-77
2023/04/07 06:31:31;;;;;;;11.77;8.65;;;;;;;5.65;44.13;94546.28;5092019;28;20478;-78
2023/04/07 06:33:57;;;;;;;13.02;9.80;;;;;;;5.94;43.55;94536.59;5092072;28;20454;-77
2023/04/07 06:36:22;;;;;;;12.50;9.82;;;;;;;5.92;43.14;94486.88;5093104;28;20020;-77
2023/04/07 06:38:47;;;;;;;11.95;9.40;;;;;;;6.54;42.80;94542.72;5108706;28;20426;-77
2023/04/07 06:41:15;;;;;;;11.60;7.90;;;;;;;6.69;41.05;94542.47;5091671;28;20081;-77
2023/04/07 06:43:42;;;;;;;10.82;7.78;;;;;;;6.98;39.67;94539.53;5075276;28;20042;-78
2023/04/07 06:46:08;;;;;;;13.45;7.70;;;;;;;7.32;38.98;94531.88;5075084;28;20391;-77
2023/04/07 06:48:33;;;;;;;7.82;6.35;;;;;;;7.06;36.78;94538.97;5091919;28;20035;-77
2023/04/07 06:50:59;;;;;;;7.78;6.28;;;;;;;7.22;36.34;94536.91;5092888;28;20027;-77
2023/04/07 06:53:24;;;;;;;8.43;6.80;;;;;;;7.50;37.38;94543.44;5074698;28;20027;-77
2023/04/07 06:55:50;;;;;;;12.80;8.95;;;;;;;7.61;39.08;94538.28;5091595;28;20032;-77
2023/04/07 06:58:15;;;;;;;11.25;9.07;;;;;;;7.81;38.84;94538.53;5092736;28;20020;-77
2023/04/07 07:00:41;;;;;;;10.10;8.13;;;;;;;8.00;38.39;94530.19;5091280;28;20032;-77
2023/04/07 07:03:06;;;;;;;13.90;8.75;;;;;;;8.09;37.78;94531.22;5091399;28;20039;-77
2023/04/07 07:05:32;;;;;;;11.07;7.90;;;;;;;7.78;38.47;94528.41;5074449;28;20450;-77
2023/04/07 07:07:57;;;;;;;10.73;8.77;;;;;;;7.89;38.49;94510.31;5092718;28;20054;-77
2023/04/07 07:10:23;;;;;;;13.00;8.90;;;;;;;8.16;37.74;94532.38;5091356;28;20482;-78
2023/04/07 07:12:49;;;;;;;9.43;7.00;;;;;;;8.41;34.99;94533.91;5091307;28;20024;-77
2023/04/07 07:15:15;;;;;;;9.38;7.13;;;;;;;8.05;35.52;94526.31;5108367;28;20044;-77
2023/04/07 07:17:40;;;;;;;12.45;7.72;;;;;;;8.50;35.28;94536.63;5108098;28;20034;-77
2023/04/07 07:20:06;;;;;;;14.45;8.05;;;;;;;8.61;34.79;94546.13;5091169;28;20563;-77
2023/04/07 07:22:31;;;;;;;8.80;6.90;;;;;;;7.71;35.80;94528.03;5090972;28;20036;-77
2023/04/07 07:24:57;;;;;;;9.18;7.03;;;;;;;7.82;35.87;94537.56;5074055;28;20421;-77
2023/04/07 07:27:22;;;;;;;11.10;7.40;;;;;;;7.60;36.36;94543.53;5091053;28;20024;-77
2023/04/07 07:29:48;;;;;;;10.27;7.57;;;;;;;7.66;36.01;94537.09;5092453;28;20028;-77
2023/04/07 07:32:13;;;;;;;10.63;7.65;;;;;;;7.78;37.08;94538.75;5073476;28;20032;-77
2023/04/07 07:34:39;;;;;;;16.60;8.30;;;;;;;8.21;36.44;94546.63;5090736;28;20097;-77
2023/04/07 07:37:04;;;;;;;11.70;8.00;;;;;;;8.25;35.82;94550.63;5090996;28;20032;-77
2023/04/07 07:39:30;;;;;;;9.48;7.45;;;;;;;8.07;36.72;94549.44;5090819;28;20024;-77
2023/04/07 07:41:56;;;;;;;8.68;7.65;;;;;;;8.00;36.46;94549.09;5074002;28;20032;-78
2023/04/07 07:44:22;;;;;;;9.48;7.47;;;;;;;8.54;36.58;94557.09;5090963;28;20032;-78
2023/04/07 07:46:48;;;;;;;9.82;7.57;;;;;;;8.77;35.44;94557.84;5092136;28;20036;-77
2023/04/07 07:49:14;;;;;;;8.55;7.03;;;;;;;9.04;35.82;94566.00;5073714;28;20088;-77
2023/04/07 07:51:40;;;;;;;10.57;7.93;;;;;;;8.77;36.08;94543.13;5090853;28;20024;-77
2023/04/07 07:54:05;;;;;;;11.00;7.97;;;;;;;9.33;36.66;94566.25;5091740;28;20047;-77
2023/04/07 07:56:31;;;;;;;7.32;5.72;;;;;;;9.46;33.56;94553.06;5089113;28;20032;-77
2023/04/07 07:58:56;;;;;;;6.55;5.25;;;;;;;9.76;32.97;94554.91;5072734;28;20041;-78
2023/04/07 08:01:21;;;;;;;6.63;4.95;;;;;;;9.99;32.29;94559.91;5073344;28;20493;-78
2023/04/07 08:03:47;;;;;;;5.93;4.10;;;;;;;10.22;31.49;94551.03;5073348;28;20383;-77
2023/04/07 08:06:12;;;;;;;9.55;6.07;;;;;;;10.31;30.49;94551.19;5089888;28;20048;-77
2023/04/07 08:08:38;;;;;;;6.50;4.60;;;;;;;10.24;30.73;94530.09;5089386;28;20024;-77
2023/04/07 08:11:03;;;;;;;11.10;7.50;;;;;;;10.30;33.51;94550.38;5090588;28;20039;-78
2023/04/07 08:13:29;;;;;;;8.43;6.10;;;;;;;10.54;32.05;94551.81;5072520;28;20027;-78
2023/04/07 08:15:54;;;;;;;6.93;5.00;;;;;;;10.74;30.74;94549.13;5055840;28;20607;-77
2023/04/07 08:18:20;;;;;;;6.85;4.65;;;;;;;10.56;30.74;94519.56;5089448;28;20043;-77
2023/04/07 08:20:45;;;;;;;6.75;4.70;;;;;;;11.10;30.11;94544.22;5089516;28;20547;-77
2023/04/07 08:23:11;;;;;;;6.20;4.40;;;;;;;11.11;30.09;94534.66;5072320;28;20201;-78
2023/04/07 08:25:38;;;;;;;7.07;4.05;;;;;;;11.32;29.57;94539.72;5072452;28;20028;-77
2023/04/07 08:28:04;;;;;;;5.25;3.95;;;;;;;11.16;29.77;94559.28;5089142;28;20028;-78
2023/04/07 08:30:30;;;;;;;5.63;4.20;;;;;;;10.99;29.42;94551.34;5090684;28;20032;-78
2023/04/07 08:32:55;;;;;;;6.45;4.95;;;;;;;10.76;29.12;94550.78;5072271;28;20082;-77
2023/04/07 08:35:21;;;;;;;7.30;5.40;;;;;;;10.81;29.71;94549.41;5089178;28;20456;-77
2023/04/07 08:37:47;;;;;;;6.22;4.38;;;;;;;11.13;30.29;94546.56;5072371;28;20020;-77
2023/04/07 08:40:13;;;;;;;6.45;5.13;;;;;;;11.04;29.99;94549.97;5072307;28;20111;-77
2023/04/07 08:42:40;;;;;;;8.85;4.90;;;;;;;11.12;29.98;94533.72;5071713;28;20028;-77
2023/04/07 08:45:06;;;;;;;5.70;4.28;;;;;;;11.33;29.18;94543.94;5088004;28;20090;-77
2023/04/07 08:47:32;;;;;;;5.70;4.45;;;;;;;11.28;28.86;94535.72;5088301;28;20051;-77
2023/04/07 08:50:09;;;;;;;6.90;4.82;;;;;;;11.36;29.04;94541.88;5088682;28;20036;-77
2023/04/07 08:52:47;;;;;;;5.70;4.90;;;;;;;11.22;29.50;94538.88;5071660;28;20042;-77
2023/04/07 08:55:12;;;;;;;6.10;4.90;;;;;;;11.27;29.33;94534.09;5071928;28;20383;-77
2023/04/07 08:57:38;;;;;;;6.30;4.80;;;;;;;10.91;29.24;94528.63;5055203;28;20027;-77
2023/04/07 09:00:06;;;;;;;16.98;8.35;;;;;;;11.18;30.01;94544.38;5088837;28;20043;-77
2023/04/07 09:02:34;;;;;;;8.07;5.22;;;;;;;11.23;30.04;94543.97;5071457;28;20062;-77
2023/04/07 09:05:00;;;;;;;6.60;5.15;;;;;;;11.11;29.63;94542.44;5071489;28;20111;-77
2023/04/07 09:07:25;;;;;;;6.68;5.18;;;;;;;10.99;30.17;94540.94;5030462;28;1200417;-77
2023/04/07 09:09:51;;;;;;;5.93;4.80;;;;;;;10.76;29.95;94525.63;5072089;28;20121;-77
2023/04/07 09:12:16;;;;;;;6.63;4.40;;;;;;;10.77;30.20;94536.81;5089425;28;20032;-77
2023/04/07 09:14:42;;;;;;;6.43;4.47;;;;;;;10.91;30.49;94544.22;5089578;28;20032;-77
2023/04/07 09:17:07;;;;;;;5.78;4.63;;;;;;;10.94;30.59;94544.75;5089393;28;20521;-77
2023/04/07 09:19:33;;;;;;;6.45;4.25;;;;;;;10.80;30.34;94546.94;5072605;28;20438;-77
2023/04/07 09:21:58;;;;;;;5.63;4.45;;;;;;;10.78;30.03;94548.84;5072545;28;20040;-77
2023/04/07 09:24:28;;;;;;;6.53;4.68;;;;;;;10.70;30.78;94544.34;5089357;28;20032;-77
2023/04/07 09:27:16;;;;;;;6.05;4.32;;;;;;;10.37;30.51;94551.50;5072460;28;20055;-77
2023/04/07 09:29:43;;;;;;;6.65;4.35;;;;;;;10.41;30.59;94552.88;5090708;28;20078;-77
2023/04/07 09:32:08;;;;;;;5.68;3.90;;;;;;;10.63;30.24;94553.63;5090566;28;20037;-77
2023/04/07 09:34:39;;;;;;;6.78;4.50;;;;;;;10.64;29.79;94558.69;5089371;28;20509;-77
2023/04/07 09:37:06;;;;;;;4.70;4.20;;;;;;;10.35;30.20;94517.06;5072636;28;20456;-77
2023/04/07 09:39:31;;;;;;;5.30;4.13;;;;;;;10.65;29.69;94542.13;5072402;28;20024;-77
2023/04/07 09:41:57;;;;;;;5.30;4.47;;;;;;;10.68;30.22;94543.66;5072545;28;20105;-77
2023/04/07 09:44:22;;;;;;;6.53;4.10;;;;;;;10.60;30.62;94552.09;5072352;28;20020;-77
2023/04/07 09:46:52;;;;;;;4.80;4.07;;;;;;;10.65;30.60;94552.53;5072442;28;20532;-77
2023/04/07 09:49:19;;;;;;;4.38;3.53;;;;;;;10.64;30.40;94560.44;5089160;28;20142;-77
2023/04/07 09:51:53;;;;;;;5.28;4.45;;;;;;;10.55;30.59;94562.06;5090428;28;20410;-77
2023/04/07 09:54:38;;;;;;;7.10;5.93;;;;;;;10.46;30.76;94545.50;5090457;28;20111;-77
2023/04/07 09:57:05;;;;;;;5.68;4.80;;;;;;;10.57;31.38;94554.97;5059283;28;20554;-77
2023/04/07 09:59:32;;;;;;;9.40;5.13;;;;;;;10.35;31.47;94556.00;5075924;28;20051;-77
2023/04/07 10:01:57;;;;;;;6.20;4.68;;;;;;;9.84;31.33;94529.13;5076025;28;20123;-76
2023/04/07 10:04:23;;;;;;;7.65;4.43;;;;;;;9.98;31.10;94535.75;5092630;28;20024;-77
2023/04/07 10:06:49;;;;;;;7.63;5.07;;;;;;;10.26;31.55;94570.56;5092638;28;20056;-77
2023/04/07 10:09:16;;;;;;;6.20;4.70;;;;;;;10.25;31.50;94568.94;5075860;28;20036;-77
2023/04/07 10:11:42;;;;;;;8.13;6.32;;;;;;;10.07;31.62;94550.53;5092452;28;20402;-77
2023/04/07 10:14:11;;;;;;;9.70;5.80;;;;;;;9.94;31.57;94549.91;5075679;28;20088;-76
2023/04/07 10:16:37;;;;;;;7.38;5.55;;;;;;;9.97;32.91;94561.81;5075495;28;20067;-77
2023/04/07 10:19:02;;;;;;;6.18;5.07;;;;;;;10.17;32.72;94560.97;5075549;28;20062;-77
2023/04/07 10:21:28;;;;;;;7.20;5.38;;;;;;;10.16;32.51;94530.75;5092616;28;20028;-77
2023/04/07 10:24:24;;;;;;;7.57;5.63;;;;;;;10.21;31.82;94558.94;5092279;28;20027;-77
2023/04/07 10:26:50;;;;;;;9.38;5.22;;;;;;;10.29;31.90;94561.72;5075327;28;20126;-77
2023/04/07 10:29:16;;;;;;;6.82;4.60;;;;;;;9.89;32.41;94557.28;5075318;28;20467;-77
2023/04/07 10:31:42;;;;;;;6.20;4.22;;;;;;;10.11;33.07;94561.47;5092255;28;20031;-77
2023/04/07 10:34:07;;;;;;;6.32;4.75;;;;;;;10.25;31.43;94563.75;5074939;28;20024;-77
2023/04/07 10:36:34;;;;;;;5.90;4.50;;;;;;;10.12;31.32;94552.75;5092072;28;20043;-77
2023/04/07 10:39:05;;;;;;;5.63;4.63;;;;;;;10.17;32.50;94563.56;5092018;28;20036;-77
2023/04/07 10:41:40;;;;;;;6.22;5.18;;;;;;;10.12;32.18;94559.72;5093266;28;20490;-77
2023/04/07 10:44:06;;;;;;;7.20;4.30;;;;;;;10.10;32.37;94567.63;5091885;28;20031;-76
2023/04/07 10:46:55;;;;;;;6.40;4.75;;;;;;;10.22;32.06;94573.53;5075093;28;20040;-77
2023/04/07 10:49:21;;;;;;;6.03;4.55;;;;;;;10.18;31.42;94567.78;5084846;28;20036;-77
2023/04/07 10:52:11;;;;;;;14.18;8.30;;;;;;;10.18;31.74;94567.78;5091763;28;20039;-76
2023/04/07 10:54:37;;;;;;;6.20;5.28;;;;;;;10.28;32.06;94575.66;5093024;28;20024;-77
2023/04/07 10:57:02;;;;;;;8.02;5.63;;;;;;;10.26;31.80;94570.56;5091881;28;20032;-77
2023/04/07 10:59:38;;;;;;;16.33;9.43;;;;;;;10.24;31.81;94567.28;5092985;28;20403;-77
2023/04/07 11:02:13;;;;;;;18.77;12.48;;;;;;;10.21;32.30;94570.13;5074907;28;20119;-77
2023/04/07 11:04:41;;;;;;;8.05;6.50;;;;;;;10.22;31.57;94576.97;5092938;28;20024;-77
2023/04/07 11:07:06;;;;;;;8.38;5.35;;;;;;;9.92;32.20;94557.03;5090394;28;20146;-77
2023/04/07 11:09:32;;;;;;;7.95;5.28;;;;;;;9.79;32.17;94540.84;5091118;28;20107;-77
2023/04/07 11:11:57;;;;;;;8.30;5.38;;;;;;;10.07;31.97;94575.66;5091230;28;20429;-77
2023/04/07 11:14:29;;;;;;;6.85;4.65;;;;;;;9.90;31.99;94574.50;5074379;28;20016;-77
2023/04/07 11:16:55;;;;;;;7.50;5.28;;;;;;;9.94;33.27;94572.47;5091032;28;20032;-77
2023/04/07 11:19:21;;;;;;;10.45;6.35;;;;;;;9.92;33.08;94564.81;5074211;28;20035;-77
2023/04/07 11:21:46;;;;;;;7.50;5.70;;;;;;;10.00;33.96;94569.34;5091138;28;20039;-77
2023/04/07 11:24:50;;;;;;;5.70;4.93;;;;;;;9.94;33.31;94577.66;5074011;28;20060;-77
2023/04/07 11:27:16;;;;;;;6.75;5.57;;;;;;;9.95;33.84;94582.72;4996939;28;20033;-77
2023/04/07 11:29:42;;;;;;;6.80;5.50;;;;;;;9.70;33.71;94583.13;5013028;28;20514;-77
2023/04/07 11:32:07;;;;;;;6.50;5.47;;;;;;;9.77;33.55;94590.25;5014840;28;20047;-77
2023/04/07 11:34:34;;;;;;;7.63;5.43;;;;;;;9.58;34.12;94569.38;5073994;28;20504;-76